createdAt,value
2018-12-21T00:00:44.723Z,4.20
2018-12-21T00:03:12.255Z,4.20
2018-12-21T00:05:39.803Z,4.20
2018-12-21T00:08:07.319Z,4.30
2018-12-21T00:10:34.844Z,4.30
2018-12-21T00:13:02.375Z,4.40
2018-12-21T00:15:29.910Z,4.40
2018-12-21T00:17:57.447Z,4.30
2018-12-21T00:20:25.093Z,4.40
2018-12-21T00:22:52.725Z,4.40
2018-12-21T00:25:20.343Z,4.40
2018-12-21T00:27:47.854Z,4.40
2018-12-21T00:30:17.455Z,4.50
2018-12-21T00:32:50.622Z,4.50
2018-12-21T00:35:23.858Z,4.50
2018-12-21T00:37:57.201Z,4.50
2018-12-21T00:40:30.424Z,4.50
2018-12-21T00:43:00.742Z,4.50
2018-12-21T00:45:30.267Z,4.50
2018-12-21T00:47:57.787Z,4.60
2018-12-21T00:50:25.302Z,4.70
2018-12-21T00:52:52.902Z,4.70
2018-12-21T00:55:20.414Z,4.60
2018-12-21T00:57:47.969Z,4.70
2018-12-21T01:00:19.448Z,4.70
2018-12-21T01:02:46.979Z,4.70
2018-12-21T01:05:14.606Z,4.70
2018-12-21T01:07:42.123Z,4.70
2018-12-21T01:10:09.774Z,4.70
2018-12-21T01:12:37.370Z,4.70
2018-12-21T01:15:05.675Z,4.70
2018-12-21T01:17:33.705Z,4.70
2018-12-21T01:20:01.305Z,4.70
2018-12-21T01:22:28.870Z,4.70
2018-12-21T01:24:56.403Z,4.70
2018-12-21T01:27:23.923Z,4.80
2018-12-21T01:29:51.478Z,4.70
2018-12-21T01:32:18.991Z,4.80
2018-12-21T01:34:46.535Z,4.70
2018-12-21T01:37:14.076Z,4.70
2018-12-21T01:39:41.619Z,4.80
2018-12-21T01:42:09.147Z,4.80
2018-12-21T01:44:36.662Z,4.80
2018-12-21T01:47:04.210Z,4.80
2018-12-21T01:49:31.747Z,4.80
2018-12-21T01:51:59.287Z,4.70
2018-12-21T01:54:26.819Z,4.80
2018-12-21T01:56:54.331Z,4.80
2018-12-21T01:59:21.877Z,4.80
2018-12-21T02:01:49.409Z,4.70
2018-12-21T02:04:16.962Z,4.70
2018-12-21T02:06:44.502Z,4.80
2018-12-21T02:09:12.047Z,4.70
2018-12-21T02:11:39.590Z,4.70
2018-12-21T02:14:07.112Z,4.80
2018-12-21T02:16:34.648Z,4.80
2018-12-21T02:19:02.186Z,4.80
2018-12-21T02:21:29.731Z,4.80
2018-12-21T02:23:57.265Z,4.80
2018-12-21T02:26:24.798Z,4.90
2018-12-21T02:28:52.332Z,4.80
2018-12-21T02:31:19.868Z,4.80
2018-12-21T02:33:47.409Z,4.80
2018-12-21T02:36:14.950Z,4.80
2018-12-21T02:38:42.496Z,4.80
2018-12-21T02:41:09.983Z,4.80
2018-12-21T02:43:37.501Z,4.80
2018-12-21T02:46:05.121Z,4.80
2018-12-21T02:48:32.635Z,4.80
2018-12-21T02:51:00.148Z,4.80
2018-12-21T02:53:27.672Z,4.80
2018-12-21T02:55:55.183Z,4.70
2018-12-21T02:58:22.695Z,4.70
2018-12-21T03:00:50.312Z,4.70
2018-12-21T03:03:17.864Z,4.70
2018-12-21T03:05:45.390Z,4.80
2018-12-21T03:08:12.879Z,4.70
2018-12-21T03:10:40.409Z,4.80
2018-12-21T03:13:07.929Z,4.80
2018-12-21T03:15:35.465Z,4.90
2018-12-21T03:18:02.969Z,5.00
2018-12-21T03:20:30.504Z,5.10
2018-12-21T03:22:57.996Z,5.20
2018-12-21T03:25:25.521Z,5.20
2018-12-21T03:27:53.013Z,5.20
2018-12-21T03:30:20.539Z,5.20
2018-12-21T03:32:48.034Z,5.20
2018-12-21T03:35:15.536Z,5.20
2018-12-21T03:37:43.056Z,5.20
2018-12-21T03:40:10.718Z,5.30
2018-12-21T03:42:38.212Z,5.20
2018-12-21T03:45:05.877Z,5.20
2018-12-21T03:47:33.488Z,5.30
2018-12-21T03:50:01.025Z,5.30
2018-12-21T03:52:28.530Z,5.30
2018-12-21T03:54:56.034Z,5.40
2018-12-21T03:57:23.555Z,5.40
2018-12-21T03:59:51.090Z,5.40
2018-12-21T04:02:20.847Z,5.40
2018-12-21T04:04:48.138Z,5.40
2018-12-21T04:07:15.657Z,5.30
2018-12-21T04:09:43.161Z,5.30
2018-12-21T04:12:10.677Z,5.30
2018-12-21T04:14:38.186Z,5.30
2018-12-21T04:17:05.699Z,5.30
2018-12-21T04:19:33.236Z,5.20
2018-12-21T04:22:00.736Z,5.30
2018-12-21T04:24:28.256Z,5.20
2018-12-21T04:26:55.802Z,5.20
2018-12-21T04:29:23.302Z,5.20
2018-12-21T04:31:50.800Z,5.20
2018-12-21T04:34:18.327Z,5.20
2018-12-21T04:36:45.849Z,5.20
2018-12-21T04:39:13.353Z,5.20
2018-12-21T04:41:40.850Z,5.20
2018-12-21T04:44:08.378Z,5.20
2018-12-21T04:46:35.891Z,5.20
2018-12-21T04:49:03.396Z,5.20
2018-12-21T04:51:30.930Z,5.20
2018-12-21T04:53:58.436Z,5.20
2018-12-21T04:56:25.947Z,5.20
2018-12-21T04:58:53.451Z,5.20
2018-12-21T05:01:20.939Z,5.20
2018-12-21T05:03:48.478Z,5.20
2018-12-21T05:06:16.106Z,5.20
2018-12-21T05:08:43.707Z,5.10
2018-12-21T05:11:11.231Z,5.10
2018-12-21T05:13:38.744Z,5.10
2018-12-21T05:16:06.278Z,5.10
2018-12-21T05:18:33.768Z,5.20
2018-12-21T05:21:01.287Z,5.30
2018-12-21T05:23:28.796Z,5.20
2018-12-21T05:25:56.311Z,5.30
2018-12-21T05:28:23.844Z,5.20
2018-12-21T05:30:51.380Z,5.20
2018-12-21T05:33:18.910Z,5.20
2018-12-21T05:35:46.444Z,5.20
2018-12-21T05:38:13.953Z,5.10
2018-12-21T05:40:41.443Z,5.10
2018-12-21T05:43:08.944Z,5.10
2018-12-21T05:45:36.470Z,5.10
2018-12-21T05:48:03.964Z,5.10
2018-12-21T05:50:31.467Z,5.10
2018-12-21T05:53:00.811Z,5.10
2018-12-21T05:55:28.540Z,5.00
2018-12-21T05:57:56.055Z,5.00
2018-12-21T06:00:23.548Z,5.00
2018-12-21T06:02:51.075Z,5.00
2018-12-21T06:05:18.580Z,5.00
2018-12-21T06:07:46.085Z,4.90
2018-12-21T06:10:13.619Z,4.90
2018-12-21T06:12:41.140Z,4.90
2018-12-21T06:15:08.826Z,4.90
2018-12-21T06:17:36.324Z,4.90
2018-12-21T06:20:04.801Z,4.90
2018-12-21T06:22:32.332Z,4.90
2018-12-21T06:24:59.844Z,4.90
2018-12-21T06:27:27.345Z,4.90
2018-12-21T06:29:54.856Z,4.80
2018-12-21T06:32:22.377Z,4.80
2018-12-21T06:34:49.916Z,4.70
2018-12-21T06:37:17.433Z,4.80
2018-12-21T06:39:44.969Z,4.80
2018-12-21T06:42:12.468Z,4.80
2018-12-21T06:44:39.999Z,4.80
2018-12-21T06:47:07.501Z,4.80
2018-12-21T06:49:35.035Z,4.80
2018-12-21T06:52:02.555Z,4.80
2018-12-21T06:54:30.072Z,4.80
2018-12-21T06:56:57.597Z,4.80
2018-12-21T06:59:25.105Z,4.80
2018-12-21T07:01:52.628Z,4.80
2018-12-21T07:04:20.153Z,4.80
2018-12-21T07:06:47.747Z,4.80
2018-12-21T07:09:15.243Z,4.80
2018-12-21T07:14:24.876Z,4.70
2018-12-21T07:16:52.387Z,4.80
2018-12-21T07:19:19.910Z,4.80
2018-12-21T07:21:47.496Z,4.80
2018-12-21T07:24:15.019Z,4.80
2018-12-21T07:26:42.516Z,4.80
2018-12-21T07:29:10.020Z,4.80
2018-12-21T07:31:37.531Z,4.80
2018-12-21T07:34:05.047Z,4.90
2018-12-21T07:36:32.574Z,4.80
2018-12-21T07:39:00.077Z,4.80
2018-12-21T07:41:27.617Z,4.80
2018-12-21T07:43:55.370Z,4.80
2018-12-21T07:46:22.891Z,4.80
2018-12-21T07:48:50.428Z,4.80
2018-12-21T07:51:17.951Z,4.80
2018-12-21T07:53:45.483Z,4.80
2018-12-21T07:56:13.005Z,4.70
2018-12-21T07:58:40.632Z,4.80
2018-12-21T08:01:08.179Z,4.80
2018-12-21T08:03:35.672Z,4.80
2018-12-21T08:06:03.224Z,4.80
2018-12-21T08:08:30.748Z,4.90
2018-12-21T08:10:58.243Z,4.80
2018-12-21T08:13:25.751Z,4.80
2018-12-21T08:15:53.256Z,4.80
2018-12-21T08:18:20.757Z,4.80
2018-12-21T08:20:48.292Z,4.90
2018-12-21T08:23:15.783Z,4.80
2018-12-21T08:25:43.314Z,4.90
2018-12-21T08:28:10.835Z,4.80
2018-12-21T08:30:38.367Z,4.80
2018-12-21T08:33:05.881Z,4.90
2018-12-21T08:35:33.395Z,4.90
2018-12-21T08:38:00.899Z,4.90
2018-12-21T08:40:28.430Z,4.90
2018-12-21T08:42:56.031Z,4.90
2018-12-21T08:45:23.567Z,4.90
2018-12-21T08:47:51.078Z,4.90
2018-12-21T08:50:18.608Z,4.90
2018-12-21T08:52:46.137Z,4.90
2018-12-21T08:55:13.685Z,5.00
2018-12-21T08:57:41.201Z,5.00
2018-12-21T09:00:10.352Z,5.00
2018-12-21T09:02:37.884Z,5.00
2018-12-21T09:05:06.045Z,5.00
2018-12-21T09:07:33.575Z,5.00
2018-12-21T09:10:01.071Z,5.00
2018-12-21T09:12:28.739Z,5.10
2018-12-21T09:14:56.236Z,5.10
2018-12-21T09:17:23.745Z,5.10
2018-12-21T09:19:51.270Z,5.10
2018-12-21T09:22:18.820Z,5.10
2018-12-21T09:24:46.335Z,5.10
2018-12-21T09:27:13.872Z,5.10
2018-12-21T09:29:41.480Z,5.10
2018-12-21T09:32:08.993Z,5.20
2018-12-21T09:34:36.488Z,5.20
2018-12-21T09:37:04.100Z,5.20
2018-12-21T09:39:31.620Z,5.30
2018-12-21T09:41:59.126Z,5.30
2018-12-21T09:44:26.663Z,5.40
2018-12-21T09:46:54.179Z,5.30
2018-12-21T09:49:21.688Z,5.40
2018-12-21T09:51:49.193Z,5.40
2018-12-21T09:54:16.699Z,5.40
2018-12-21T09:56:44.215Z,5.50
2018-12-21T09:59:11.725Z,5.50
2018-12-21T10:01:39.239Z,5.50
2018-12-21T10:04:06.779Z,5.50
2018-12-21T10:06:34.517Z,5.50
2018-12-21T10:09:02.036Z,5.60
2018-12-21T10:11:29.537Z,5.60
2018-12-21T10:13:57.043Z,5.60
2018-12-21T10:16:24.556Z,5.50
2018-12-21T10:18:52.068Z,5.60
2018-12-21T10:21:19.581Z,5.50
2018-12-21T10:23:47.111Z,5.50
2018-12-21T10:26:14.608Z,5.50
2018-12-21T10:28:42.125Z,5.50
2018-12-21T10:31:09.649Z,5.50
2018-12-21T10:33:37.162Z,5.50
2018-12-21T10:36:04.680Z,5.60
2018-12-21T10:38:32.193Z,5.60
2018-12-21T10:40:59.788Z,5.60
2018-12-21T10:43:27.300Z,5.60
2018-12-21T10:45:54.815Z,5.70
2018-12-21T10:48:22.329Z,5.70
2018-12-21T10:50:49.863Z,5.70
2018-12-21T10:53:17.387Z,5.70
2018-12-21T10:55:44.911Z,5.60
2018-12-21T10:58:12.404Z,5.60
2018-12-21T11:00:39.933Z,5.60
2018-12-21T11:03:07.433Z,5.60
2018-12-21T11:05:34.939Z,5.60
2018-12-21T11:08:02.447Z,5.70
2018-12-21T11:10:30.041Z,5.70
2018-12-21T11:12:57.981Z,5.70
2018-12-21T11:15:25.488Z,5.70
2018-12-21T11:17:53.008Z,5.70
2018-12-21T11:20:20.540Z,5.60
2018-12-21T11:22:48.036Z,5.60
2018-12-21T11:25:15.549Z,5.60
2018-12-21T11:27:43.141Z,5.60
2018-12-21T11:30:10.664Z,5.60
2018-12-21T11:32:38.201Z,5.60
2018-12-21T11:35:05.867Z,5.70
2018-12-21T11:37:33.376Z,5.70
2018-12-21T11:40:00.879Z,5.70
2018-12-21T11:42:28.388Z,5.70
2018-12-21T11:44:55.888Z,5.60
2018-12-21T11:47:23.399Z,5.60
2018-12-21T11:49:50.901Z,5.60
2018-12-21T11:52:18.435Z,5.60
2018-12-21T11:54:45.924Z,5.60
2018-12-21T11:57:13.461Z,5.50
2018-12-21T11:59:44.909Z,5.50
2018-12-21T12:02:10.520Z,5.50
2018-12-21T12:04:38.044Z,5.50
2018-12-21T12:07:05.579Z,5.50
2018-12-21T12:09:33.082Z,5.50
2018-12-21T12:12:00.598Z,5.60
2018-12-21T12:14:28.119Z,5.50
2018-12-21T12:16:55.655Z,5.50
2018-12-21T12:19:23.150Z,5.50
2018-12-21T12:21:50.680Z,5.40
2018-12-21T12:24:18.203Z,5.50
2018-12-21T12:26:45.724Z,5.50
2018-12-21T12:29:13.236Z,5.50
2018-12-21T12:31:42.920Z,5.50
2018-12-21T12:34:10.281Z,5.40
2018-12-21T12:36:37.791Z,5.50
2018-12-21T12:39:06.064Z,5.40
2018-12-21T12:41:33.688Z,5.50
2018-12-21T12:44:01.208Z,5.50
2018-12-21T12:46:28.724Z,5.50
2018-12-21T12:48:56.251Z,5.50
2018-12-21T12:51:23.766Z,5.40
2018-12-21T12:53:51.287Z,5.40
2018-12-21T12:56:18.860Z,5.40
2018-12-21T12:58:46.386Z,5.40
2018-12-21T13:01:13.972Z,5.40
2018-12-21T13:03:41.560Z,5.60
2018-12-21T13:06:09.062Z,5.60
2018-12-21T13:08:38.870Z,5.60
2018-12-21T13:11:06.128Z,5.60
2018-12-21T13:13:33.657Z,5.60
2018-12-21T13:16:01.157Z,5.60
2018-12-21T13:18:28.670Z,5.60
2018-12-21T13:20:56.193Z,5.60
2018-12-21T13:23:23.739Z,5.50
2018-12-21T13:25:51.237Z,5.60
2018-12-21T13:28:18.749Z,5.60
2018-12-21T13:30:46.249Z,5.60
2018-12-21T13:33:13.791Z,5.60
2018-12-21T13:35:41.288Z,5.50
2018-12-21T13:38:08.780Z,5.50
2018-12-21T13:40:36.307Z,5.50
2018-12-21T13:43:03.844Z,5.50
2018-12-21T13:45:31.358Z,5.50
2018-12-21T13:47:58.868Z,5.50
2018-12-21T13:50:26.373Z,5.50
2018-12-21T13:52:53.920Z,5.50
2018-12-21T13:55:21.447Z,5.50
2018-12-21T13:57:48.949Z,5.50
2018-12-21T14:00:16.465Z,5.40
2018-12-21T14:02:43.988Z,5.40
2018-12-21T14:05:11.567Z,5.40
2018-12-21T14:07:39.073Z,5.40
2018-12-21T14:10:09.541Z,5.40
2018-12-21T14:12:37.062Z,5.50
2018-12-21T14:15:05.129Z,5.50
2018-12-21T14:17:32.641Z,5.40
2018-12-21T14:20:00.172Z,5.40
2018-12-21T14:22:27.663Z,5.40
2018-12-21T14:24:55.163Z,5.40
2018-12-21T14:27:22.656Z,5.40
2018-12-21T14:29:50.173Z,5.40
2018-12-21T14:32:17.672Z,5.40
2018-12-21T14:34:45.212Z,5.40
2018-12-21T14:37:12.717Z,5.40
2018-12-21T14:39:40.252Z,5.40
2018-12-21T14:42:07.768Z,5.40
2018-12-21T14:44:35.295Z,5.30
2018-12-21T14:47:02.807Z,5.40
2018-12-21T14:49:30.342Z,5.40
2018-12-21T14:51:57.836Z,5.40
2018-12-21T14:54:25.426Z,5.50
2018-12-21T14:56:52.960Z,5.50
2018-12-21T14:59:20.491Z,5.50
2018-12-21T15:01:48.013Z,5.50
2018-12-21T15:04:15.548Z,5.50
2018-12-21T15:06:43.065Z,5.50
2018-12-21T15:09:12.064Z,5.40
2018-12-21T15:11:39.560Z,5.50
2018-12-21T15:14:07.095Z,5.40
2018-12-21T15:16:34.591Z,5.40
2018-12-21T15:19:02.112Z,5.40
2018-12-21T15:21:29.620Z,5.40
2018-12-21T15:23:57.137Z,5.40
2018-12-21T15:26:24.633Z,5.40
2018-12-21T15:28:52.133Z,5.40
2018-12-21T15:31:19.631Z,5.40
2018-12-21T15:33:47.165Z,5.50
2018-12-21T15:36:14.660Z,5.40
2018-12-21T15:38:42.167Z,5.50
2018-12-21T15:41:09.656Z,5.50
2018-12-21T15:43:37.198Z,5.50
2018-12-21T15:46:04.718Z,5.50
2018-12-21T15:48:32.212Z,5.50
2018-12-21T15:50:59.735Z,5.50
2018-12-21T15:53:27.235Z,5.50
2018-12-21T15:55:55.144Z,5.50
2018-12-21T15:58:22.779Z,5.40
2018-12-21T16:00:50.302Z,5.50
2018-12-21T16:03:17.867Z,5.40
2018-12-21T16:05:45.391Z,5.40
2018-12-21T16:08:12.890Z,5.40
2018-12-21T16:10:40.389Z,5.40
2018-12-21T16:13:07.918Z,5.40
2018-12-21T16:15:35.412Z,5.40
2018-12-21T16:18:02.937Z,5.40
2018-12-21T16:20:30.463Z,5.50
2018-12-21T16:22:57.975Z,5.50
2018-12-21T16:25:25.474Z,5.40
2018-12-21T16:27:52.981Z,5.40
2018-12-21T16:30:20.495Z,5.50
2018-12-21T16:32:48.028Z,5.50
2018-12-21T16:35:15.521Z,5.50
2018-12-21T16:37:43.163Z,5.50
2018-12-21T16:40:10.755Z,5.50
2018-12-21T16:42:38.284Z,5.50
2018-12-21T16:45:08.151Z,5.50
2018-12-21T16:47:35.684Z,5.50
2018-12-21T16:50:06.050Z,5.50
2018-12-21T16:52:33.578Z,5.50
2018-12-21T16:55:01.087Z,5.50
2018-12-21T16:57:28.627Z,5.50
2018-12-21T16:59:56.116Z,5.50
2018-12-21T17:02:23.608Z,5.60
2018-12-21T17:04:51.120Z,5.60
2018-12-21T17:07:18.607Z,5.60
2018-12-21T17:09:46.220Z,5.60
2018-12-21T17:12:13.727Z,5.60
2018-12-21T17:14:41.236Z,5.60
2018-12-21T17:17:08.724Z,5.60
2018-12-21T17:19:36.223Z,5.60
2018-12-21T17:22:03.735Z,5.60
2018-12-21T17:24:31.254Z,5.70
2018-12-21T17:26:58.836Z,5.70
2018-12-21T17:29:26.353Z,5.70
2018-12-21T17:31:53.879Z,5.70
2018-12-21T17:34:21.395Z,5.80
2018-12-21T17:36:48.920Z,5.80
2018-12-21T17:39:16.412Z,5.80
2018-12-21T17:41:43.941Z,5.80
2018-12-21T17:44:13.209Z,5.90
2018-12-21T17:46:40.896Z,5.90
2018-12-21T17:49:08.416Z,5.90
2018-12-21T17:51:35.924Z,5.90
2018-12-21T17:54:04.830Z,5.90
2018-12-21T17:56:32.576Z,6.00
2018-12-21T17:59:00.096Z,6.00
2018-12-21T18:01:27.883Z,6.00
2018-12-21T18:03:55.482Z,6.10
2018-12-21T18:06:22.981Z,6.10
2018-12-21T18:08:50.481Z,6.30
2018-12-21T18:11:18.130Z,6.20
2018-12-21T18:13:45.643Z,6.20
2018-12-21T18:16:13.171Z,6.30
2018-12-21T18:18:40.673Z,6.30
2018-12-21T18:21:08.180Z,6.30
2018-12-21T18:23:35.744Z,6.30
2018-12-21T18:26:03.275Z,6.30
2018-12-21T18:28:30.776Z,6.40
2018-12-21T18:31:01.351Z,6.40
2018-12-21T18:33:28.847Z,6.50
2018-12-21T18:35:56.352Z,6.50
2018-12-21T18:38:23.849Z,6.50
2018-12-21T18:40:51.349Z,6.50
2018-12-21T18:43:18.877Z,6.60
2018-12-21T18:45:46.381Z,6.60
2018-12-21T18:48:13.907Z,6.60
2018-12-21T18:50:41.412Z,6.60
2018-12-21T18:53:08.928Z,6.70
2018-12-21T18:55:36.518Z,6.80
2018-12-21T18:58:04.016Z,6.80
2018-12-21T19:00:31.538Z,6.90
2018-12-21T19:02:59.772Z,7.00
2018-12-21T19:05:27.328Z,7.00
2018-12-21T19:07:54.928Z,7.10
2018-12-21T19:10:22.439Z,7.20
2018-12-21T19:12:49.962Z,7.20
2018-12-21T19:15:17.456Z,7.20
2018-12-21T19:17:44.986Z,7.30
2018-12-21T19:20:12.653Z,7.30
2018-12-21T19:22:40.184Z,7.40
2018-12-21T19:25:08.059Z,7.30
2018-12-21T19:27:35.592Z,7.40
2018-12-21T19:30:03.742Z,7.40
2018-12-21T19:32:31.267Z,7.50
2018-12-21T19:34:58.778Z,7.50
2018-12-21T19:37:26.311Z,7.60
2018-12-21T19:39:53.813Z,7.80
2018-12-21T19:42:21.349Z,7.70
2018-12-21T19:44:48.863Z,7.80
2018-12-21T19:47:16.390Z,7.80
2018-12-21T19:49:43.891Z,7.80
2018-12-21T19:52:11.539Z,7.90
2018-12-21T19:54:39.161Z,7.90
2018-12-21T19:57:06.692Z,7.90
2018-12-21T19:59:34.221Z,7.90
2018-12-21T20:02:01.796Z,8.00
2018-12-21T20:04:29.379Z,8.00
2018-12-21T20:06:56.908Z,8.00
2018-12-21T20:09:24.482Z,8.00
2018-12-21T20:11:52.001Z,8.00
2018-12-21T20:14:19.526Z,8.00
2018-12-21T20:16:47.038Z,8.00
2018-12-21T20:19:14.567Z,8.00
2018-12-21T20:21:42.076Z,8.10
2018-12-21T20:24:09.607Z,8.10
2018-12-21T20:26:37.181Z,8.10
2018-12-21T20:29:04.688Z,8.10
2018-12-21T20:31:32.175Z,8.20
2018-12-21T20:33:59.704Z,8.30
2018-12-21T20:36:27.218Z,8.30
2018-12-21T20:38:54.726Z,8.20
2018-12-21T20:41:22.223Z,8.30
2018-12-21T20:43:49.727Z,8.40
2018-12-21T20:46:17.239Z,8.50
2018-12-21T20:48:44.744Z,8.50
2018-12-21T20:51:12.232Z,8.60
2018-12-21T20:53:39.861Z,8.60
2018-12-21T20:56:07.357Z,8.70
2018-12-21T20:58:35.239Z,8.70
2018-12-21T21:01:02.744Z,8.70
2018-12-21T21:03:30.247Z,8.80
2018-12-21T21:05:57.764Z,8.80
2018-12-21T21:08:25.276Z,8.80
2018-12-21T21:10:52.776Z,8.80
2018-12-21T21:13:20.312Z,8.80
2018-12-21T21:15:47.817Z,8.90
2018-12-21T21:18:15.330Z,8.90
2018-12-21T21:20:42.859Z,8.90
2018-12-21T21:23:10.357Z,8.90
2018-12-21T21:25:37.860Z,8.90
2018-12-21T21:28:05.374Z,8.80
2018-12-21T21:30:33.560Z,8.80
2018-12-21T21:33:01.080Z,8.80
2018-12-21T21:35:28.615Z,8.80
2018-12-21T21:37:56.136Z,8.80
2018-12-21T21:40:23.653Z,8.80
2018-12-21T21:42:57.491Z,8.80
2018-12-21T21:45:20.736Z,8.80
2018-12-21T21:47:48.247Z,8.80
2018-12-21T21:50:15.775Z,8.80
2018-12-21T21:52:43.287Z,8.80
2018-12-21T21:55:10.793Z,8.90
2018-12-21T21:57:39.487Z,8.90
2018-12-21T22:00:10.400Z,8.90
2018-12-21T22:02:37.906Z,8.90
2018-12-21T22:05:05.527Z,8.90
2018-12-21T22:07:33.020Z,8.90
2018-12-21T22:10:00.520Z,8.90
2018-12-21T22:12:28.012Z,8.80
2018-12-21T22:14:55.515Z,8.80
2018-12-21T22:17:23.008Z,8.80
2018-12-21T22:19:50.517Z,8.80
2018-12-21T22:22:18.036Z,8.80
2018-12-21T22:24:45.571Z,8.80
2018-12-21T22:27:13.092Z,8.70
2018-12-21T22:29:40.599Z,8.80
2018-12-21T22:32:08.108Z,8.80
2018-12-21T22:34:35.628Z,8.80
2018-12-21T22:37:03.145Z,8.80
2018-12-21T22:39:30.659Z,8.80
2018-12-21T22:41:58.184Z,8.80
2018-12-21T22:44:25.693Z,8.80
2018-12-21T22:46:53.301Z,8.80
2018-12-21T22:49:20.824Z,8.80
2018-12-21T22:51:48.332Z,8.80
2018-12-21T22:54:15.828Z,8.90
2018-12-21T22:56:43.332Z,8.90
2018-12-21T22:59:10.851Z,8.90
2018-12-21T23:01:38.347Z,8.90
2018-12-21T23:04:05.864Z,8.90
2018-12-21T23:06:33.371Z,8.90
2018-12-21T23:09:00.868Z,9.00
2018-12-21T23:11:28.473Z,9.00
2018-12-21T23:13:55.996Z,9.00
2018-12-21T23:16:23.514Z,9.00
2018-12-21T23:18:51.011Z,9.00
2018-12-21T23:21:18.520Z,9.00
2018-12-21T23:23:46.031Z,9.10
2018-12-21T23:26:13.541Z,9.20
2018-12-21T23:28:41.027Z,9.20
2018-12-21T23:31:08.544Z,9.20
2018-12-21T23:44:09.535Z,13.00
2018-12-21T23:46:37.064Z,9.40
2018-12-21T23:49:04.603Z,9.40
2018-12-21T23:51:32.123Z,9.40
2018-12-21T23:53:59.679Z,9.40
2018-12-21T23:56:27.218Z,9.40
2018-12-21T23:58:54.753Z,9.30
